createdAt,value
2019-06-15T00:01:53.133Z,10.07
2019-06-15T00:04:22.872Z,10.43
2019-06-15T00:06:55.347Z,10.60
2019-06-15T00:09:25.053Z,10.80
2019-06-15T00:11:54.804Z,10.33
2019-06-15T00:14:24.499Z,10.97
2019-06-15T00:16:54.255Z,11.17
2019-06-15T00:19:23.984Z,10.57
2019-06-15T00:21:53.730Z,10.40
2019-06-15T00:24:35.031Z,11.87
2019-06-15T00:26:54.859Z,11.23
2019-06-15T00:29:24.538Z,11.30
2019-06-15T00:31:54.324Z,11.27
2019-06-15T00:34:24.023Z,11.43
2019-06-15T00:36:53.730Z,11.57
2019-06-15T00:39:23.509Z,11.80
2019-06-15T00:41:53.216Z,11.30
2019-06-15T00:44:22.912Z,12.00
2019-06-15T00:46:52.652Z,11.70
2019-06-15T00:49:22.453Z,11.70
2019-06-15T00:51:52.161Z,11.63
2019-06-15T00:54:21.937Z,12.33
2019-06-15T00:56:51.611Z,11.40
2019-06-15T00:59:21.334Z,12.63
2019-06-15T01:01:51.034Z,12.27
2019-06-15T01:04:22.996Z,12.10
2019-06-15T01:06:52.752Z,11.90
2019-06-15T01:09:22.447Z,11.00
2019-06-15T01:11:52.165Z,11.77
2019-06-15T01:14:22.375Z,12.53
2019-06-15T01:16:52.096Z,13.13
2019-06-15T01:19:24.108Z,12.90
2019-06-15T01:21:53.859Z,12.27
2019-06-15T01:24:23.669Z,12.77
2019-06-15T01:26:53.380Z,12.60
2019-06-15T01:29:23.084Z,12.70
2019-06-15T01:31:54.126Z,13.30
2019-06-15T01:34:23.837Z,12.77
2019-06-15T01:36:53.542Z,13.47
2019-06-15T01:39:26.023Z,14.07
2019-06-15T01:41:55.734Z,12.23
2019-06-15T01:44:25.531Z,13.27
2019-06-15T01:46:55.265Z,13.23
2019-06-15T01:49:24.951Z,13.57
2019-06-15T01:51:54.694Z,13.37
2019-06-15T01:54:24.974Z,11.77
2019-06-15T01:56:54.712Z,12.97
2019-06-15T01:59:24.497Z,13.17
2019-06-15T02:01:54.175Z,12.83
2019-06-15T02:04:23.915Z,14.10
2019-06-15T02:06:53.637Z,12.23
2019-06-15T02:09:25.840Z,12.73
2019-06-15T02:11:55.548Z,13.53
2019-06-15T02:14:25.438Z,12.57
2019-06-15T02:16:55.178Z,13.97
2019-06-15T02:19:24.995Z,13.10
2019-06-15T02:21:54.713Z,14.00
2019-06-15T02:24:24.620Z,13.10
2019-06-15T02:26:54.348Z,12.77
2019-06-15T02:29:24.041Z,12.87
2019-06-15T02:31:53.753Z,14.03
2019-06-15T02:34:23.497Z,12.67
2019-06-15T02:36:53.238Z,13.40
2019-06-15T02:39:23.504Z,17.40
2019-06-15T02:41:53.250Z,13.97
2019-06-15T02:44:23.016Z,13.50
2019-06-15T02:46:52.774Z,13.50
2019-06-15T02:49:22.506Z,14.27
2019-06-15T02:51:52.708Z,13.63
2019-06-15T02:54:22.411Z,13.63
2019-06-15T02:56:52.166Z,13.60
2019-06-15T02:59:21.876Z,13.43
2019-06-15T03:01:51.587Z,12.70
2019-06-15T03:04:21.360Z,13.87
2019-06-15T03:06:51.071Z,13.03
2019-06-15T03:09:20.807Z,13.80
2019-06-15T03:11:50.675Z,13.67
2019-06-15T03:14:20.344Z,12.70
2019-06-15T03:16:50.071Z,12.60
2019-06-15T03:19:19.788Z,12.63
2019-06-15T03:21:49.552Z,13.03
2019-06-15T03:24:19.220Z,12.53
2019-06-15T03:26:48.907Z,15.30
2019-06-15T03:29:18.634Z,15.77
2019-06-15T03:31:48.362Z,14.30
2019-06-15T03:34:18.086Z,11.87
2019-06-15T03:36:47.770Z,13.83
2019-06-15T03:39:17.467Z,14.13
2019-06-15T03:41:47.212Z,13.13
2019-06-15T03:44:16.888Z,12.17
2019-06-15T03:46:46.604Z,14.97
2019-06-15T03:49:16.972Z,11.33
2019-06-15T03:51:46.676Z,10.77
2019-06-15T03:54:16.391Z,10.77
2019-06-15T03:56:46.525Z,13.37
2019-06-15T03:59:16.223Z,10.30
2019-06-15T04:01:50.299Z,10.07
2019-06-15T04:04:19.981Z,11.10
2019-06-15T04:06:49.653Z,10.70
2019-06-15T04:09:19.403Z,11.17
2019-06-15T04:11:49.172Z,10.77
2019-06-15T04:14:18.889Z,11.07
2019-06-15T04:16:48.652Z,13.00
2019-06-15T04:19:18.349Z,11.73
2019-06-15T04:21:48.144Z,11.15
2019-06-15T04:24:17.822Z,10.10
2019-06-15T04:26:48.523Z,11.68
2019-06-15T04:29:18.523Z,14.38
2019-06-15T04:31:48.292Z,9.80
2019-06-15T04:34:18.009Z,10.15
2019-06-15T04:36:47.688Z,10.35
2019-06-15T04:39:17.446Z,11.28
2019-06-15T04:41:47.136Z,10.82
2019-06-15T04:44:16.865Z,9.70
2019-06-15T04:46:46.588Z,9.18
2019-06-15T04:49:16.268Z,8.93
2019-06-15T04:51:45.991Z,8.05
2019-06-15T04:54:15.704Z,7.95
2019-06-15T04:56:50.949Z,9.20
2019-06-15T04:59:16.871Z,10.43
2019-06-15T05:01:46.559Z,9.48
2019-06-15T05:04:16.278Z,9.10
2019-06-15T05:06:46.037Z,8.48
2019-06-15T05:09:15.738Z,15.85
2019-06-15T05:11:45.455Z,8.50
2019-06-15T05:14:15.176Z,7.97
2019-06-15T05:16:44.877Z,7.78
2019-06-15T05:19:14.599Z,8.93
2019-06-15T05:21:44.280Z,7.78
2019-06-15T05:24:14.062Z,7.37
2019-06-15T05:26:43.757Z,8.95
2019-06-15T05:29:13.439Z,7.30
2019-06-15T05:31:43.196Z,7.53
2019-06-15T05:34:13.779Z,7.53
2019-06-15T05:36:43.542Z,7.58
2019-06-15T05:39:13.250Z,8.33
2019-06-15T05:41:42.950Z,8.33
2019-06-15T05:44:12.668Z,7.58
2019-06-15T05:46:42.417Z,6.80
2019-06-15T05:49:12.109Z,6.42
2019-06-15T05:51:41.819Z,7.20
2019-06-15T05:54:11.508Z,7.72
2019-06-15T05:56:41.203Z,7.45
2019-06-15T05:59:10.911Z,7.28
2019-06-15T06:01:40.607Z,8.10
2019-06-15T06:04:10.281Z,7.55
2019-06-15T06:06:40.071Z,8.00
2019-06-15T06:09:10.183Z,8.00
2019-06-15T06:11:39.919Z,7.28
2019-06-15T06:14:09.646Z,6.72
2019-06-15T06:16:39.387Z,6.62
2019-06-15T06:19:09.116Z,6.78
2019-06-15T06:21:38.883Z,6.92
2019-06-15T06:24:08.676Z,6.85
2019-06-15T06:26:38.325Z,6.70
2019-06-15T06:29:08.031Z,6.80
2019-06-15T06:31:38.766Z,6.62
2019-06-15T06:34:08.450Z,7.10
2019-06-15T06:36:40.351Z,7.60
2019-06-15T06:39:10.124Z,6.78
2019-06-15T06:41:41.523Z,6.42
2019-06-15T06:44:11.267Z,6.80
2019-06-15T06:46:40.995Z,6.53
2019-06-15T06:49:10.716Z,6.55
2019-06-15T06:51:40.587Z,6.15
2019-06-15T06:54:10.301Z,6.35
2019-06-15T06:56:43.196Z,6.03
2019-06-15T06:59:12.938Z,5.85
2019-06-15T07:01:43.112Z,6.00
2019-06-15T07:04:51.689Z,5.33
2019-06-15T07:07:21.409Z,5.28
2019-06-15T07:09:51.118Z,6.00
2019-06-15T07:12:21.583Z,5.75
2019-06-15T07:14:51.314Z,5.95
2019-06-15T07:17:21.040Z,5.42
2019-06-15T07:19:50.837Z,5.58
2019-06-15T07:22:21.970Z,5.72
2019-06-15T07:24:51.783Z,6.28
2019-06-15T07:27:21.511Z,5.20
2019-06-15T07:29:51.246Z,5.42
2019-06-15T07:32:20.945Z,6.08
2019-06-15T07:34:50.624Z,5.55
2019-06-15T07:37:20.337Z,5.50
2019-06-15T07:39:50.059Z,5.70
2019-06-15T07:42:19.809Z,5.28
2019-06-15T07:44:49.559Z,5.58
2019-06-15T07:47:19.724Z,5.65
2019-06-15T07:49:49.447Z,5.72
2019-06-15T07:52:19.214Z,5.35
2019-06-15T07:54:48.890Z,5.17
2019-06-15T07:57:18.610Z,5.10
2019-06-15T07:59:48.617Z,5.37
2019-06-15T08:02:18.315Z,5.15
2019-06-15T08:04:48.010Z,5.47
2019-06-15T08:07:17.728Z,6.12
2019-06-15T08:09:47.412Z,5.42
2019-06-15T08:12:17.220Z,5.78
2019-06-15T08:14:46.953Z,5.20
2019-06-15T08:17:16.685Z,5.62
2019-06-15T08:19:46.457Z,5.83
2019-06-15T08:22:16.117Z,5.37
2019-06-15T08:24:45.883Z,5.67
2019-06-15T08:27:15.610Z,6.35
2019-06-15T08:29:45.297Z,5.97
2019-06-15T08:32:14.955Z,5.47
2019-06-15T08:34:44.720Z,5.62
2019-06-15T08:37:14.471Z,5.80
2019-06-15T08:39:44.292Z,5.40
2019-06-15T08:42:14.021Z,5.78
2019-06-15T08:44:43.749Z,5.33
2019-06-15T08:47:16.681Z,5.03
2019-06-15T08:49:46.972Z,5.28
2019-06-15T08:52:16.954Z,5.65
2019-06-15T08:54:48.693Z,5.22
2019-06-15T08:57:18.495Z,5.83
2019-06-15T08:59:50.509Z,5.20
2019-06-15T09:02:20.354Z,5.70
2019-06-15T09:04:50.153Z,5.50
2019-06-15T09:07:20.906Z,6.25
2019-06-15T09:09:55.215Z,5.28
2019-06-15T09:12:25.144Z,6.20
2019-06-15T09:14:55.364Z,6.17
2019-06-15T09:17:26.447Z,5.47
2019-06-15T09:19:56.440Z,5.67
2019-06-15T09:22:26.605Z,5.50
2019-06-15T09:24:56.605Z,5.92
2019-06-15T09:27:26.629Z,5.83
2019-06-15T09:29:56.514Z,5.87
2019-06-15T09:32:26.399Z,6.08
2019-06-15T09:34:56.384Z,6.25
2019-06-15T09:37:26.398Z,5.83
2019-06-15T09:39:56.246Z,6.03
2019-06-15T09:42:26.147Z,5.90
2019-06-15T09:44:56.074Z,5.78
2019-06-15T09:47:26.111Z,5.30
2019-06-15T09:49:56.103Z,5.62
2019-06-15T09:52:26.061Z,5.58
2019-06-15T09:54:55.910Z,6.20
2019-06-15T09:57:25.768Z,5.92
2019-06-15T09:59:57.090Z,6.12
2019-06-15T10:02:27.031Z,5.60
2019-06-15T10:04:57.004Z,6.15
2019-06-15T10:07:27.097Z,5.95
2019-06-15T10:09:57.034Z,6.65
2019-06-15T10:12:27.123Z,6.47
2019-06-15T10:14:57.077Z,5.70
2019-06-15T10:17:28.796Z,6.20
2019-06-15T10:19:58.727Z,6.62
2019-06-15T10:22:28.691Z,6.53
2019-06-15T10:24:58.641Z,6.28
2019-06-15T10:27:28.551Z,6.55
2019-06-15T10:29:58.460Z,6.53
2019-06-15T10:32:28.381Z,5.65
2019-06-15T10:34:58.261Z,5.97
2019-06-15T10:37:28.154Z,6.15
2019-06-15T10:39:58.135Z,5.90
2019-06-15T10:42:28.111Z,6.30
2019-06-15T10:44:58.205Z,6.50
2019-06-15T10:47:28.103Z,6.60
2019-06-15T10:49:57.986Z,5.80
2019-06-15T10:52:27.961Z,5.85
2019-06-15T10:54:57.808Z,5.50
2019-06-15T10:57:27.735Z,6.35
2019-06-15T10:59:57.985Z,6.17
2019-06-15T11:02:28.368Z,6.42
2019-06-15T11:04:58.367Z,6.37
2019-06-15T11:07:28.231Z,6.20
2019-06-15T11:09:58.094Z,6.17
2019-06-15T11:12:28.117Z,5.87
2019-06-15T11:14:58.231Z,6.05
2019-06-15T11:17:28.163Z,5.92
2019-06-15T11:19:58.026Z,5.70
2019-06-15T11:22:28.042Z,5.80
2019-06-15T11:24:57.934Z,6.42
2019-06-15T11:27:27.829Z,6.20
2019-06-15T11:30:12.594Z,6.25
2019-06-15T11:32:29.201Z,6.33
2019-06-15T11:34:59.109Z,6.03
2019-06-15T11:37:28.985Z,6.40
2019-06-15T11:39:58.884Z,6.53
2019-06-15T11:42:28.773Z,6.00
2019-06-15T11:44:58.919Z,6.40
2019-06-15T11:47:28.781Z,5.53
2019-06-15T11:49:59.104Z,6.12
2019-06-15T11:52:28.996Z,6.00
2019-06-15T11:54:58.870Z,6.08
2019-06-15T11:57:28.785Z,5.92
2019-06-15T11:59:58.728Z,5.95
2019-06-15T12:02:28.940Z,5.50
2019-06-15T12:04:59.017Z,5.37
2019-06-15T12:07:28.960Z,5.70
2019-06-15T12:09:58.845Z,5.47
2019-06-15T12:12:28.776Z,5.75
2019-06-15T12:14:58.759Z,5.25
2019-06-15T12:17:28.700Z,5.35
2019-06-15T12:19:58.568Z,6.10
2019-06-15T12:22:28.545Z,5.53
2019-06-15T12:24:58.464Z,5.53
2019-06-15T12:27:28.882Z,5.50
2019-06-15T12:29:58.750Z,5.45
2019-06-15T12:32:28.840Z,5.30
2019-06-15T12:34:58.663Z,5.85
2019-06-15T12:37:28.547Z,5.45
2019-06-15T12:39:58.563Z,5.30
2019-06-15T12:42:28.449Z,5.47
2019-06-15T12:44:58.358Z,5.80
2019-06-15T12:47:28.287Z,5.10
2019-06-15T12:49:59.519Z,5.28
2019-06-15T12:52:29.394Z,5.08
2019-06-15T12:54:59.286Z,4.97
2019-06-15T12:57:29.316Z,5.00
2019-06-15T12:59:59.375Z,5.70
2019-06-15T13:02:29.235Z,5.00
2019-06-15T13:04:59.162Z,5.20
2019-06-15T13:07:29.135Z,5.83
2019-06-15T13:10:01.702Z,5.12
2019-06-15T13:12:32.247Z,5.40
2019-06-15T13:15:02.137Z,5.65
2019-06-15T13:17:32.004Z,5.40
2019-06-15T13:20:01.935Z,5.28
2019-06-15T13:22:32.299Z,5.33
2019-06-15T13:25:02.240Z,5.37
2019-06-15T13:27:32.165Z,5.05
2019-06-15T13:30:02.047Z,5.58
2019-06-15T13:32:32.107Z,5.95
2019-06-15T13:35:01.969Z,5.67
2019-06-15T13:37:41.656Z,5.45
2019-06-15T13:40:04.317Z,5.25
2019-06-15T13:42:34.158Z,5.45
2019-06-15T13:45:04.292Z,5.55
2019-06-15T13:47:35.524Z,5.50
2019-06-15T13:50:06.030Z,5.53
2019-06-15T13:52:35.975Z,5.85
2019-06-15T13:55:06.455Z,6.22
2019-06-15T13:57:36.329Z,5.45
2019-06-15T14:00:07.110Z,6.15
2019-06-15T14:02:37.153Z,6.30
2019-06-15T14:05:07.633Z,5.60
2019-06-15T14:07:37.646Z,6.30
2019-06-15T14:10:07.797Z,6.25
2019-06-15T14:12:38.535Z,5.37
2019-06-15T14:15:09.611Z,5.37
2019-06-15T14:17:40.170Z,5.78
2019-06-15T14:20:10.555Z,6.08
2019-06-15T14:22:40.415Z,5.55
2019-06-15T14:25:12.104Z,5.70
2019-06-15T14:27:42.037Z,6.03
2019-06-15T14:30:12.488Z,5.47
2019-06-15T14:32:45.484Z,5.45
2019-06-15T14:35:15.583Z,6.10
2019-06-15T14:37:47.270Z,6.30
2019-06-15T14:40:17.544Z,5.55
2019-06-15T14:42:48.112Z,6.00
2019-06-15T14:45:20.531Z,5.55
2019-06-15T14:47:50.837Z,6.20
2019-06-15T14:50:21.041Z,5.70
2019-06-15T14:52:50.972Z,6.00
2019-06-15T14:55:20.952Z,5.90
2019-06-15T14:57:50.991Z,6.75
2019-06-15T15:00:21.187Z,6.47
2019-06-15T15:02:51.128Z,5.95
2019-06-15T15:05:21.422Z,6.10
2019-06-15T15:07:52.582Z,5.92
2019-06-15T15:10:22.750Z,5.45
2019-06-15T15:12:52.799Z,6.30
2019-06-15T15:15:22.870Z,6.03
2019-06-15T15:17:54.155Z,5.67
2019-06-15T15:20:26.418Z,5.87
2019-06-15T15:22:56.927Z,6.28
2019-06-15T15:25:30.992Z,6.47
2019-06-15T15:28:00.579Z,6.20
2019-06-15T15:30:37.780Z,5.62
2019-06-15T15:33:07.868Z,6.62
2019-06-15T15:35:37.845Z,5.53
2019-06-15T15:38:08.818Z,6.33
2019-06-15T15:40:38.740Z,6.85
2019-06-15T15:43:08.688Z,6.67
2019-06-15T15:45:39.041Z,6.20
2019-06-15T15:48:09.336Z,6.17
2019-06-15T15:50:39.950Z,6.03
2019-06-15T15:53:11.858Z,6.05
2019-06-15T15:55:41.721Z,6.37
2019-06-15T15:58:11.943Z,6.42
2019-06-15T16:00:41.885Z,6.00
2019-06-15T16:03:12.014Z,6.37
2019-06-15T16:05:41.896Z,6.62
2019-06-15T16:08:11.842Z,6.40
2019-06-15T16:10:41.884Z,6.20
2019-06-15T16:13:11.820Z,6.40
2019-06-15T16:15:41.713Z,7.17
2019-06-15T16:18:11.603Z,6.80
2019-06-15T16:20:41.566Z,6.53
2019-06-15T16:23:18.365Z,6.92
2019-06-15T16:25:48.232Z,6.62
2019-06-15T16:28:18.163Z,6.30
2019-06-15T16:31:05.281Z,6.95
2019-06-15T16:33:19.631Z,7.17
2019-06-15T16:35:49.648Z,7.17
2019-06-15T16:38:19.734Z,6.97
2019-06-15T16:40:49.888Z,7.12
2019-06-15T16:43:20.053Z,7.50
2019-06-15T16:45:49.943Z,6.95
2019-06-15T16:48:19.896Z,7.85
2019-06-15T16:50:50.154Z,7.42
2019-06-15T16:53:20.031Z,7.20
2019-06-15T16:55:49.928Z,7.30
2019-06-15T16:58:19.797Z,7.10
2019-06-15T17:00:49.787Z,7.55
2019-06-15T17:03:24.935Z,7.35
2019-06-15T17:05:52.768Z,7.42
2019-06-15T17:08:22.647Z,8.53
2019-06-15T17:10:53.015Z,7.87
2019-06-15T17:13:25.965Z,8.48
2019-06-15T17:15:57.201Z,9.30
2019-06-15T17:18:27.363Z,8.23
2019-06-15T17:20:58.688Z,8.88
2019-06-15T17:23:28.516Z,8.00
2019-06-15T17:25:59.848Z,8.05
2019-06-15T17:28:29.830Z,7.17
2019-06-15T17:31:00.990Z,7.83
2019-06-15T17:33:37.679Z,7.83
2019-06-15T17:36:03.321Z,8.05
2019-06-15T17:38:33.394Z,8.00
2019-06-15T17:41:03.355Z,7.85
2019-06-15T17:43:33.231Z,8.05
2019-06-15T17:46:03.131Z,7.85
2019-06-15T17:48:33.079Z,8.08
2019-06-15T17:51:02.959Z,8.40
2019-06-15T17:53:33.777Z,8.50
2019-06-15T17:56:07.084Z,8.65
2019-06-15T17:58:36.976Z,7.55
2019-06-15T18:01:07.340Z,8.58
2019-06-15T18:03:49.798Z,7.95
2019-06-15T18:06:08.796Z,8.63
2019-06-15T18:08:38.667Z,8.45
2019-06-15T18:11:08.597Z,7.67
2019-06-15T18:13:38.450Z,8.53
2019-06-15T18:16:08.336Z,8.63
2019-06-15T18:18:38.285Z,9.45
2019-06-15T18:21:08.139Z,9.35
2019-06-15T18:23:38.029Z,10.08
2019-06-15T18:26:08.034Z,9.80
2019-06-15T18:28:37.941Z,9.50
2019-06-15T18:31:07.891Z,10.00
2019-06-15T18:33:37.906Z,10.13
2019-06-15T18:36:08.775Z,9.08
2019-06-15T18:38:39.884Z,9.75
2019-06-15T18:41:10.850Z,10.82
2019-06-15T18:43:40.738Z,9.65
2019-06-15T18:49:00.621Z,10.75
2019-06-15T18:51:30.552Z,10.90
2019-06-15T18:54:00.414Z,10.75
2019-06-15T18:56:30.305Z,9.60
2019-06-15T18:59:00.231Z,9.30
2019-06-15T19:01:30.123Z,9.58
2019-06-15T19:04:01.343Z,10.25
2019-06-15T19:06:31.293Z,9.93
2019-06-15T19:09:02.642Z,9.50
2019-06-15T19:11:33.265Z,10.20
2019-06-15T19:14:03.413Z,10.60
2019-06-15T19:16:33.367Z,10.05
2019-06-15T19:19:03.235Z,10.30
2019-06-15T19:21:33.209Z,10.60
2019-06-15T19:24:03.194Z,10.20
2019-06-15T19:26:33.120Z,10.58
2019-06-15T19:29:03.197Z,10.50
2019-06-15T19:31:33.088Z,11.30
2019-06-15T19:34:06.781Z,11.40
2019-06-15T19:36:36.762Z,10.75
2019-06-15T19:39:08.536Z,10.48
2019-06-15T19:41:38.395Z,11.20
2019-06-15T19:44:08.532Z,11.10
2019-06-15T19:46:38.450Z,10.95
2019-06-15T19:49:08.299Z,10.70
2019-06-15T19:51:38.232Z,11.30
2019-06-15T19:54:08.250Z,10.25
2019-06-15T19:56:38.146Z,11.10
2019-06-15T19:59:08.025Z,11.43
2019-06-15T20:01:37.982Z,11.40
2019-06-15T20:04:10.134Z,11.63
2019-06-15T20:06:39.490Z,12.15
2019-06-15T20:09:11.471Z,12.10
2019-06-15T20:11:42.050Z,12.68
2019-06-15T20:14:12.143Z,11.97
2019-06-15T20:16:42.003Z,11.33
2019-06-15T20:19:12.576Z,11.25
2019-06-15T20:21:42.427Z,11.33
2019-06-15T20:24:12.382Z,11.80
2019-06-15T20:26:44.055Z,11.53
2019-06-15T20:29:13.948Z,10.95
2019-06-15T20:31:46.173Z,10.82
2019-06-15T20:34:16.580Z,10.82
2019-06-15T20:36:47.076Z,11.90
2019-06-15T20:39:17.237Z,11.60
2019-06-15T20:41:47.330Z,10.58
2019-06-15T20:47:58.563Z,10.78
2019-06-15T20:50:28.697Z,11.55
2019-06-15T20:52:58.900Z,11.28
2019-06-15T20:55:30.040Z,12.10
2019-06-15T20:57:59.928Z,12.07
2019-06-15T21:00:30.198Z,12.75
2019-06-15T21:03:00.177Z,12.25
2019-06-15T21:05:37.679Z,12.13
2019-06-15T21:08:01.772Z,12.43
2019-06-15T21:10:31.749Z,12.28
2019-06-15T21:13:01.939Z,11.88
2019-06-15T21:15:36.495Z,12.53
2019-06-15T21:18:06.861Z,13.08
2019-06-15T21:20:37.229Z,12.58
2019-06-15T21:23:09.579Z,13.65
2019-06-15T21:25:39.504Z,13.18
2019-06-15T21:28:09.648Z,11.75
2019-06-15T21:30:39.535Z,13.13
2019-06-15T21:33:09.564Z,12.10
2019-06-15T21:35:49.156Z,13.00
2019-06-15T21:38:13.765Z,13.75
2019-06-15T21:40:47.290Z,12.65
2019-06-15T21:43:16.892Z,12.60
2019-06-15T21:45:46.808Z,13.28
2019-06-15T21:48:16.862Z,12.93
2019-06-15T21:50:47.411Z,12.37
2019-06-15T21:53:17.525Z,12.10
2019-06-15T21:55:47.536Z,14.28
2019-06-15T21:58:17.428Z,13.32
2019-06-15T22:01:07.410Z,12.65
2019-06-15T22:03:37.367Z,13.13
2019-06-15T22:06:07.274Z,12.98
2019-06-15T22:08:37.239Z,13.38
2019-06-15T22:11:07.428Z,13.48
2019-06-15T22:13:37.564Z,12.95
2019-06-15T22:16:07.516Z,13.65
2019-06-15T22:18:37.418Z,13.68
2019-06-15T22:21:08.023Z,13.98
2019-06-15T22:23:37.916Z,12.82
2019-06-15T22:26:08.398Z,14.07
2019-06-15T22:28:38.338Z,13.95
2019-06-15T22:31:08.325Z,14.63
2019-06-15T22:33:38.204Z,13.80
2019-06-15T22:36:20.847Z,13.40
2019-06-15T22:38:42.773Z,13.88
2019-06-15T22:41:13.374Z,14.15
2019-06-15T22:43:46.003Z,13.95
2019-06-15T22:46:16.692Z,15.08
2019-06-15T22:48:46.984Z,13.05
2019-06-15T22:51:17.303Z,12.55
2019-06-15T22:53:47.442Z,14.07
2019-06-15T22:56:17.903Z,13.48
2019-06-15T22:58:47.900Z,14.18
2019-06-15T23:01:17.796Z,15.05
2019-06-15T23:03:47.784Z,13.98
2019-06-15T23:06:31.180Z,14.03
2019-06-15T23:08:49.309Z,14.63
2019-06-15T23:11:19.239Z,13.15
2019-06-15T23:13:49.144Z,14.07
2019-06-15T23:16:19.028Z,14.25
2019-06-15T23:18:48.974Z,14.10
2019-06-15T23:21:18.879Z,14.65
2019-06-15T23:23:48.769Z,14.35
2019-06-15T23:26:19.181Z,14.23
2019-06-15T23:28:49.079Z,14.30
2019-06-15T23:31:19.176Z,13.98
2019-06-15T23:33:52.043Z,13.98
2019-06-15T23:36:27.071Z,13.62
2019-06-15T23:38:57.191Z,15.20
2019-06-15T23:41:27.464Z,13.78
2019-06-15T23:43:57.723Z,14.10
2019-06-15T23:46:27.613Z,13.85
2019-06-15T23:48:57.471Z,14.65
2019-06-15T23:51:27.436Z,13.65
2019-06-15T23:53:57.381Z,13.22
2019-06-15T23:56:30.083Z,13.58
2019-06-15T23:58:59.995Z,14.03
